Terminal Aerodrome Forecast
Issued by NWS

Home | Current Version | Previous Version | Graphics & Text | Print | Product List | Glossary On
Versions: 1 2 3 4 5 6 7 8 9 10 11 12 13 14 15 16 17 18 19 20 21 22 23 24 25 26 27
074
FTUS43 KABR 171209 AAA
TAFATY
TAF AMD
KATY 171209Z 1712/1812 31008KT P6SM SCT008
     FM171500 30009KT P6SM FEW250
     FM171800 28007KT P6SM SKC
     FM172100 VRB05KT P6SM FEW250=

USA.gov is the U.S. government's official web portal to all federal, state and local government web resources and services.